sensor_id;sensor_type;location;lat;lon;timestamp;P1;durP1;ratioP1;P2;durP2;ratioP2
43413;SDS011;29013;49.676;8.606;2023-09-12T00:03:13;3.27;;;2.25;;
43413;SDS011;29013;49.676;8.606;2023-09-12T00:09:02;6.83;;;2.87;;
43413;SDS011;29013;49.676;8.606;2023-09-12T00:14:27;3.98;;;2.41;;
43413;SDS011;29013;49.676;8.606;2023-09-12T00:19:53;5.58;;;2.63;;
43413;SDS011;29013;49.676;8.606;2023-09-12T00:25:18;3.98;;;2.59;;
43413;SDS011;29013;49.676;8.606;2023-09-12T00:31:03;5.08;;;2.49;;
43413;SDS011;29013;49.676;8.606;2023-09-12T00:36:21;7.77;;;2.16;;
43413;SDS011;29013;49.676;8.606;2023-09-12T00:41:46;4.51;;;2.21;;
43413;SDS011;29013;49.676;8.606;2023-09-12T00:47:23;5.16;;;2.47;;
43413;SDS011;29013;49.676;8.606;2023-09-12T00:52:48;6.52;;;2.26;;
43413;SDS011;29013;49.676;8.606;2023-09-12T00:58:13;4.47;;;2.24;;
43413;SDS011;29013;49.676;8.606;2023-09-12T01:03:47;4.83;;;2.33;;
43413;SDS011;29013;49.676;8.606;2023-09-12T01:09:11;4.92;;;2.46;;
43413;SDS011;29013;49.676;8.606;2023-09-12T01:14:33;4.32;;;2.13;;
43413;SDS011;29013;49.676;8.606;2023-09-12T01:19:58;4.65;;;1.93;;
43413;SDS011;29013;49.676;8.606;2023-09-12T01:25:30;6.8;;;2.36;;
43413;SDS011;29013;49.676;8.606;2023-09-12T01:31:01;4.14;;;2.1;;
43413;SDS011;29013;49.676;8.606;2023-09-12T01:36:23;4.29;;;1.89;;
43413;SDS011;29013;49.676;8.606;2023-09-12T01:41:49;5.9;;;2.1;;
43413;SDS011;29013;49.676;8.606;2023-09-12T01:47:28;4.38;;;2.2;;
43413;SDS011;29013;49.676;8.606;2023-09-12T01:52:52;4.33;;;1.95;;
43413;SDS011;29013;49.676;8.606;2023-09-12T01:58:17;5.92;;;1.98;;
43413;SDS011;29013;49.676;8.606;2023-09-12T02:03:42;4.56;;;2.06;;
43413;SDS011;29013;49.676;8.606;2023-09-12T02:09:01;2.96;;;1.84;;
43413;SDS011;29013;49.676;8.606;2023-09-12T02:14:27;2.83;;;2.01;;
43413;SDS011;29013;49.676;8.606;2023-09-12T02:19:53;2.97;;;2.18;;
43413;SDS011;29013;49.676;8.606;2023-09-12T02:25:15;5.53;;;1.96;;
43413;SDS011;29013;49.676;8.606;2023-09-12T02:30:40;3.09;;;1.76;;
43413;SDS011;29013;49.676;8.606;2023-09-12T02:36:04;7.16;;;2.04;;
43413;SDS011;29013;49.676;8.606;2023-09-12T02:41:26;5.54;;;2.08;;
43413;SDS011;29013;49.676;8.606;2023-09-12T02:46:51;4.08;;;2.35;;
43413;SDS011;29013;49.676;8.606;2023-09-12T02:53:04;4.66;;;2.09;;
43413;SDS011;29013;49.676;8.606;2023-09-12T02:58:27;3.55;;;2.0;;
43413;SDS011;29013;49.676;8.606;2023-09-12T03:03:52;6.06;;;2.23;;
43413;SDS011;29013;49.676;8.606;2023-09-12T03:09:17;6.63;;;2.44;;
43413;SDS011;29013;49.676;8.606;2023-09-12T03:15:05;9.03;;;2.81;;
43413;SDS011;29013;49.676;8.606;2023-09-12T03:20:25;4.66;;;2.58;;
43413;SDS011;29013;49.676;8.606;2023-09-12T03:25:50;6.6;;;2.44;;
43413;SDS011;29013;49.676;8.606;2023-09-12T03:31:16;2.82;;;2.22;;
43413;SDS011;29013;49.676;8.606;2023-09-12T03:36:41;5.78;;;2.44;;
43413;SDS011;29013;49.676;8.606;2023-09-12T03:42:22;5.4;;;2.83;;
43413;SDS011;29013;49.676;8.606;2023-09-12T03:47:43;6.24;;;3.05;;
43413;SDS011;29013;49.676;8.606;2023-09-12T03:53:08;5.4;;;2.86;;
43413;SDS011;29013;49.676;8.606;2023-09-12T03:58:33;5.14;;;2.93;;
43413;SDS011;29013;49.676;8.606;2023-09-12T04:03:59;5.83;;;3.46;;
43413;SDS011;29013;49.676;8.606;2023-09-12T04:09:23;4.97;;;3.09;;
43413;SDS011;29013;49.676;8.606;2023-09-12T04:14:45;7.54;;;3.56;;
43413;SDS011;29013;49.676;8.606;2023-09-12T04:20:08;6.32;;;3.14;;
43413;SDS011;29013;49.676;8.606;2023-09-12T04:25:33;6.6;;;3.31;;
43413;SDS011;29013;49.676;8.606;2023-09-12T04:31:04;6.77;;;3.8;;
43413;SDS011;29013;49.676;8.606;2023-09-12T04:36:25;7.88;;;3.42;;
43413;SDS011;29013;49.676;8.606;2023-09-12T04:41:50;5.94;;;2.99;;
43413;SDS011;29013;49.676;8.606;2023-09-12T04:47:15;4.64;;;3.3;;
43413;SDS011;29013;49.676;8.606;2023-09-12T04:52:40;4.3;;;3.29;;
43413;SDS011;29013;49.676;8.606;2023-09-12T04:58:06;7.07;;;3.67;;
43413;SDS011;29013;49.676;8.606;2023-09-12T05:03:30;6.54;;;3.32;;
43413;SDS011;29013;49.676;8.606;2023-09-12T05:08:56;6.76;;;3.26;;
43413;SDS011;29013;49.676;8.606;2023-09-12T05:14:19;7.06;;;2.81;;
43413;SDS011;29013;49.676;8.606;2023-09-12T05:19:46;8.32;;;3.09;;
43413;SDS011;29013;49.676;8.606;2023-09-12T05:25:12;10.07;;;2.88;;
43413;SDS011;29013;49.676;8.606;2023-09-12T05:30:37;7.16;;;3.3;;
43413;SDS011;29013;49.676;8.606;2023-09-12T05:35:59;4.92;;;2.86;;
43413;SDS011;29013;49.676;8.606;2023-09-12T05:41:24;12.22;;;3.54;;
43413;SDS011;29013;49.676;8.606;2023-09-12T05:46:50;5.16;;;3.45;;
43413;SDS011;29013;49.676;8.606;2023-09-12T05:52:15;7.84;;;3.36;;
43413;SDS011;29013;49.676;8.606;2023-09-12T05:58:00;7.27;;;3.84;;
43413;SDS011;29013;49.676;8.606;2023-09-12T06:03:24;7.9;;;3.16;;
43413;SDS011;29013;49.676;8.606;2023-09-12T06:08:49;8.3;;;3.58;;
43413;SDS011;29013;49.676;8.606;2023-09-12T06:14:15;4.92;;;3.42;;
43413;SDS011;29013;49.676;8.606;2023-09-12T06:19:40;4.86;;;3.61;;
43413;SDS011;29013;49.676;8.606;2023-09-12T06:25:07;6.92;;;3.21;;
43413;SDS011;29013;49.676;8.606;2023-09-12T06:30:33;10.21;;;3.3;;
43413;SDS011;29013;49.676;8.606;2023-09-12T06:35:57;7.43;;;3.67;;
43413;SDS011;29013;49.676;8.606;2023-09-12T06:41:23;8.46;;;3.56;;
43413;SDS011;29013;49.676;8.606;2023-09-12T06:46:46;5.97;;;3.04;;
43413;SDS011;29013;49.676;8.606;2023-09-12T06:52:12;12.23;;;4.35;;
43413;SDS011;29013;49.676;8.606;2023-09-12T06:57:37;9.5;;;3.91;;
43413;SDS011;29013;49.676;8.606;2023-09-12T07:03:03;7.32;;;3.08;;
43413;SDS011;29013;49.676;8.606;2023-09-12T07:08:26;9.88;;;3.6;;
43413;SDS011;29013;49.676;8.606;2023-09-12T07:13:46;5.7;;;3.05;;
43413;SDS011;29013;49.676;8.606;2023-09-12T07:19:06;6.3;;;3.01;;
43413;SDS011;29013;49.676;8.606;2023-09-12T07:24:29;8.32;;;3.85;;
43413;SDS011;29013;49.676;8.606;2023-09-12T07:29:55;7.95;;;4.02;;
43413;SDS011;29013;49.676;8.606;2023-09-12T07:35:20;5.99;;;3.31;;
43413;SDS011;29013;49.676;8.606;2023-09-12T07:40:39;5.64;;;3.31;;
43413;SDS011;29013;49.676;8.606;2023-09-12T07:46:05;5.43;;;3.65;;
43413;SDS011;29013;49.676;8.606;2023-09-12T07:51:48;6.92;;;3.78;;
43413;SDS011;29013;49.676;8.606;2023-09-12T07:57:13;6.05;;;3.2;;
43413;SDS011;29013;49.676;8.606;2023-09-12T08:03:46;8.6;;;4.2;;
43413;SDS011;29013;49.676;8.606;2023-09-12T08:09:10;6.15;;;3.34;;
43413;SDS011;29013;49.676;8.606;2023-09-12T08:14:35;5.69;;;3.31;;
43413;SDS011;29013;49.676;8.606;2023-09-12T08:20:01;7.65;;;3.33;;
43413;SDS011;29013;49.676;8.606;2023-09-12T08:25:24;3.91;;;2.92;;
43413;SDS011;29013;49.676;8.606;2023-09-12T08:30:49;7.68;;;2.94;;
43413;SDS011;29013;49.676;8.606;2023-09-12T08:36:14;7.04;;;3.01;;
43413;SDS011;29013;49.676;8.606;2023-09-12T08:41:40;6.29;;;3.58;;
43413;SDS011;29013;49.676;8.606;2023-09-12T08:47:05;7.23;;;3.49;;
43413;SDS011;29013;49.676;8.606;2023-09-12T08:52:26;9.39;;;4.37;;
43413;SDS011;29013;49.676;8.606;2023-09-12T08:57:52;5.54;;;3.4;;
43413;SDS011;29013;49.676;8.606;2023-09-12T09:03:17;6.06;;;3.86;;
43413;SDS011;29013;49.676;8.606;2023-09-12T09:08:43;10.03;;;4.45;;
43413;SDS011;29013;49.676;8.606;2023-09-12T09:14:08;9.91;;;4.4;;
43413;SDS011;29013;49.676;8.606;2023-09-12T09:19:44;8.17;;;4.06;;
43413;SDS011;29013;49.676;8.606;2023-09-12T09:25:12;8.33;;;4.73;;
43413;SDS011;29013;49.676;8.606;2023-09-12T09:30:42;6.69;;;4.25;;
43413;SDS011;29013;49.676;8.606;2023-09-12T09:36:05;6.51;;;4.22;;
43413;SDS011;29013;49.676;8.606;2023-09-12T09:41:31;8.43;;;4.4;;
43413;SDS011;29013;49.676;8.606;2023-09-12T09:46:53;8.18;;;4.03;;
43413;SDS011;29013;49.676;8.606;2023-09-12T09:52:17;6.37;;;3.89;;
43413;SDS011;29013;49.676;8.606;2023-09-12T09:57:47;5.44;;;3.81;;
43413;SDS011;29013;49.676;8.606;2023-09-12T10:03:10;5.27;;;3.56;;
43413;SDS011;29013;49.676;8.606;2023-09-12T10:08:35;4.76;;;3.17;;
43413;SDS011;29013;49.676;8.606;2023-09-12T10:13:59;6.09;;;3.7;;
43413;SDS011;29013;49.676;8.606;2023-09-12T10:19:23;6.55;;;3.61;;
43413;SDS011;29013;49.676;8.606;2023-09-12T10:24:49;6.14;;;2.94;;
43413;SDS011;29013;49.676;8.606;2023-09-12T10:30:12;6.6;;;3.0;;
43413;SDS011;29013;49.676;8.606;2023-09-12T10:35:38;4.94;;;3.2;;
43413;SDS011;29013;49.676;8.606;2023-09-12T10:41:18;5.29;;;3.56;;
43413;SDS011;29013;49.676;8.606;2023-09-12T10:46:43;6.71;;;2.81;;
43413;SDS011;29013;49.676;8.606;2023-09-12T10:52:06;4.45;;;3.2;;
43413;SDS011;29013;49.676;8.606;2023-09-12T10:57:32;4.97;;;2.8;;
43413;SDS011;29013;49.676;8.606;2023-09-12T11:02:57;5.08;;;3.07;;
43413;SDS011;29013;49.676;8.606;2023-09-12T11:08:22;7.96;;;3.14;;
43413;SDS011;29013;49.676;8.606;2023-09-12T11:13:59;4.2;;;3.09;;
43413;SDS011;29013;49.676;8.606;2023-09-12T11:19:27;4.15;;;2.88;;
43413;SDS011;29013;49.676;8.606;2023-09-12T11:24:53;3.87;;;2.96;;
43413;SDS011;29013;49.676;8.606;2023-09-12T11:30:20;4.72;;;2.99;;
43413;SDS011;29013;49.676;8.606;2023-09-12T11:35:45;4.63;;;2.97;;
43413;SDS011;29013;49.676;8.606;2023-09-12T11:41:10;3.9;;;3.04;;
43413;SDS011;29013;49.676;8.606;2023-09-12T11:46:36;5.42;;;2.89;;
43413;SDS011;29013;49.676;8.606;2023-09-12T11:52:01;6.45;;;2.91;;
43413;SDS011;29013;49.676;8.606;2023-09-12T11:57:27;4.79;;;3.11;;
43413;SDS011;29013;49.676;8.606;2023-09-12T12:02:53;4.73;;;2.9;;
43413;SDS011;29013;49.676;8.606;2023-09-12T12:08:19;7.62;;;3.04;;
43413;SDS011;29013;49.676;8.606;2023-09-12T12:13:45;4.9;;;3.23;;
43413;SDS011;29013;49.676;8.606;2023-09-12T12:19:10;7.12;;;2.88;;
43413;SDS011;29013;49.676;8.606;2023-09-12T12:24:38;5.26;;;3.21;;
43413;SDS011;29013;49.676;8.606;2023-09-12T12:30:12;5.51;;;3.2;;
43413;SDS011;29013;49.676;8.606;2023-09-12T12:35:37;4.36;;;2.83;;
43413;SDS011;29013;49.676;8.606;2023-09-12T12:41:03;4.21;;;2.82;;
43413;SDS011;29013;49.676;8.606;2023-09-12T12:46:28;3.9;;;2.61;;
43413;SDS011;29013;49.676;8.606;2023-09-12T12:51:54;4.2;;;2.75;;
43413;SDS011;29013;49.676;8.606;2023-09-12T12:57:19;5.42;;;2.9;;
43413;SDS011;29013;49.676;8.606;2023-09-12T13:02:45;4.42;;;2.77;;
43413;SDS011;29013;49.676;8.606;2023-09-12T13:08:10;4.68;;;2.85;;
43413;SDS011;29013;49.676;8.606;2023-09-12T13:13:37;3.39;;;2.88;;
43413;SDS011;29013;49.676;8.606;2023-09-12T13:19:02;4.32;;;2.63;;
43413;SDS011;29013;49.676;8.606;2023-09-12T13:24:26;5.83;;;3.12;;
43413;SDS011;29013;49.676;8.606;2023-09-12T13:29:45;5.07;;;3.3;;
43413;SDS011;29013;49.676;8.606;2023-09-12T13:35:36;4.27;;;2.73;;
43413;SDS011;29013;49.676;8.606;2023-09-12T13:41:01;4.86;;;2.72;;
43413;SDS011;29013;49.676;8.606;2023-09-12T13:46:44;5.95;;;3.25;;
43413;SDS011;29013;49.676;8.606;2023-09-12T13:52:27;5.31;;;2.93;;
43413;SDS011;29013;49.676;8.606;2023-09-12T13:58:12;5.82;;;3.04;;
43413;SDS011;29013;49.676;8.606;2023-09-12T14:03:34;3.54;;;2.6;;
43413;SDS011;29013;49.676;8.606;2023-09-12T14:09:15;4.83;;;3.11;;
43413;SDS011;29013;49.676;8.606;2023-09-12T14:14:34;4.87;;;2.73;;
43413;SDS011;29013;49.676;8.606;2023-09-12T14:20:21;5.15;;;2.96;;
43413;SDS011;29013;49.676;8.606;2023-09-12T14:25:46;3.22;;;2.66;;
43413;SDS011;29013;49.676;8.606;2023-09-12T14:31:12;3.33;;;2.41;;
43413;SDS011;29013;49.676;8.606;2023-09-12T14:36:39;3.92;;;2.9;;
43413;SDS011;29013;49.676;8.606;2023-09-12T14:42:27;6.28;;;3.01;;
43413;SDS011;29013;49.676;8.606;2023-09-12T14:47:51;3.03;;;2.55;;
43413;SDS011;29013;49.676;8.606;2023-09-12T14:53:14;4.58;;;2.19;;
43413;SDS011;29013;49.676;8.606;2023-09-12T14:58:40;3.79;;;2.42;;
43413;SDS011;29013;49.676;8.606;2023-09-12T15:04:06;2.57;;;2.22;;
43413;SDS011;29013;49.676;8.606;2023-09-12T15:09:32;4.94;;;2.22;;
43413;SDS011;29013;49.676;8.606;2023-09-12T15:14:58;2.78;;;2.02;;
43413;SDS011;29013;49.676;8.606;2023-09-12T15:20:21;5.93;;;2.58;;
43413;SDS011;29013;49.676;8.606;2023-09-12T15:25:47;5.6;;;3.01;;
43413;SDS011;29013;49.676;8.606;2023-09-12T15:31:06;4.28;;;2.43;;
43413;SDS011;29013;49.676;8.606;2023-09-12T15:37:05;4.13;;;2.81;;
43413;SDS011;29013;49.676;8.606;2023-09-12T15:42:32;4.71;;;2.78;;
43413;SDS011;29013;49.676;8.606;2023-09-12T15:47:57;4.26;;;2.26;;
43413;SDS011;29013;49.676;8.606;2023-09-12T15:53:40;3.84;;;2.7;;
43413;SDS011;29013;49.676;8.606;2023-09-12T15:59:05;9.52;;;3.23;;
43413;SDS011;29013;49.676;8.606;2023-09-12T16:04:30;5.6;;;2.92;;
43413;SDS011;29013;49.676;8.606;2023-09-12T16:09:56;3.9;;;2.84;;
43413;SDS011;29013;49.676;8.606;2023-09-12T16:15:21;4.0;;;3.07;;
43413;SDS011;29013;49.676;8.606;2023-09-12T16:20:47;3.4;;;2.52;;
43413;SDS011;29013;49.676;8.606;2023-09-12T16:26:13;3.96;;;2.85;;
43413;SDS011;29013;49.676;8.606;2023-09-12T16:31:38;5.05;;;3.22;;
43413;SDS011;29013;49.676;8.606;2023-09-12T16:37:04;4.89;;;2.41;;
43413;SDS011;29013;49.676;8.606;2023-09-12T16:42:30;5.58;;;2.98;;
43413;SDS011;29013;49.676;8.606;2023-09-12T16:47:55;4.02;;;3.03;;
43413;SDS011;29013;49.676;8.606;2023-09-12T16:59:34;4.58;;;3.31;;
43413;SDS011;29013;49.676;8.606;2023-09-12T17:04:59;5.28;;;3.02;;
43413;SDS011;29013;49.676;8.606;2023-09-12T17:10:25;4.46;;;3.41;;
43413;SDS011;29013;49.676;8.606;2023-09-12T17:15:50;3.82;;;3.02;;
43413;SDS011;29013;49.676;8.606;2023-09-12T17:21:16;6.64;;;3.13;;
43413;SDS011;29013;49.676;8.606;2023-09-12T17:26:43;5.32;;;2.77;;
43413;SDS011;29013;49.676;8.606;2023-09-12T17:32:11;5.13;;;3.47;;
43413;SDS011;29013;49.676;8.606;2023-09-12T17:37:38;7.09;;;3.04;;
43413;SDS011;29013;49.676;8.606;2023-09-12T17:43:03;4.31;;;2.96;;
43413;SDS011;29013;49.676;8.606;2023-09-12T17:48:29;3.63;;;2.46;;
43413;SDS011;29013;49.676;8.606;2023-09-12T17:53:55;4.49;;;2.52;;
43413;SDS011;29013;49.676;8.606;2023-09-12T17:59:20;4.65;;;2.92;;
43413;SDS011;29013;49.676;8.606;2023-09-12T18:04:47;4.63;;;2.46;;
43413;SDS011;29013;49.676;8.606;2023-09-12T18:10:53;3.47;;;2.35;;
43413;SDS011;29013;49.676;8.606;2023-09-12T18:16:16;5.49;;;2.95;;
43413;SDS011;29013;49.676;8.606;2023-09-12T18:21:41;4.03;;;1.97;;
43413;SDS011;29013;49.676;8.606;2023-09-12T18:27:07;3.36;;;2.11;;
43413;SDS011;29013;49.676;8.606;2023-09-12T18:32:30;3.88;;;2.27;;
43413;SDS011;29013;49.676;8.606;2023-09-12T18:38:11;3.69;;;2.43;;
43413;SDS011;29013;49.676;8.606;2023-09-12T18:43:35;2.89;;;2.46;;
43413;SDS011;29013;49.676;8.606;2023-09-12T18:49:16;4.69;;;2.95;;
43413;SDS011;29013;49.676;8.606;2023-09-12T18:54:38;3.67;;;2.54;;
43413;SDS011;29013;49.676;8.606;2023-09-12T19:00:07;6.62;;;3.11;;
43413;SDS011;29013;49.676;8.606;2023-09-12T19:05:29;3.68;;;2.8;;
43413;SDS011;29013;49.676;8.606;2023-09-12T19:11:15;5.27;;;3.16;;
43413;SDS011;29013;49.676;8.606;2023-09-12T19:16:41;3.59;;;2.59;;
43413;SDS011;29013;49.676;8.606;2023-09-12T19:22:06;6.54;;;2.75;;
43413;SDS011;29013;49.676;8.606;2023-09-12T19:27:30;3.89;;;2.81;;
43413;SDS011;29013;49.676;8.606;2023-09-12T19:32:58;3.55;;;2.68;;
43413;SDS011;29013;49.676;8.606;2023-09-12T19:38:23;3.37;;;2.22;;
43413;SDS011;29013;49.676;8.606;2023-09-12T19:44:07;4.0;;;2.43;;
43413;SDS011;29013;49.676;8.606;2023-09-12T19:49:32;3.06;;;2.26;;
43413;SDS011;29013;49.676;8.606;2023-09-12T19:54:57;3.01;;;2.02;;
43413;SDS011;29013;49.676;8.606;2023-09-12T20:00:23;3.11;;;2.13;;
43413;SDS011;29013;49.676;8.606;2023-09-12T20:05:49;6.16;;;2.52;;
43413;SDS011;29013;49.676;8.606;2023-09-12T20:11:14;3.1;;;1.99;;
43413;SDS011;29013;49.676;8.606;2023-09-12T20:16:40;4.97;;;2.03;;
43413;SDS011;29013;49.676;8.606;2023-09-12T20:21:59;2.35;;;1.82;;
43413;SDS011;29013;49.676;8.606;2023-09-12T20:27:24;2.46;;;1.77;;
43413;SDS011;29013;49.676;8.606;2023-09-12T20:32:44;3.78;;;2.26;;
43413;SDS011;29013;49.676;8.606;2023-09-12T20:38:09;2.9;;;1.8;;
43413;SDS011;29013;49.676;8.606;2023-09-12T20:43:33;3.15;;;1.92;;
43413;SDS011;29013;49.676;8.606;2023-09-12T20:48:59;3.24;;;1.83;;
43413;SDS011;29013;49.676;8.606;2023-09-12T20:54:45;2.69;;;1.9;;
43413;SDS011;29013;49.676;8.606;2023-09-12T21:00:13;2.07;;;1.48;;
43413;SDS011;29013;49.676;8.606;2023-09-12T21:05:32;2.04;;;1.48;;
43413;SDS011;29013;49.676;8.606;2023-09-12T21:10:56;2.58;;;1.27;;
43413;SDS011;29013;49.676;8.606;2023-09-12T21:16:22;1.72;;;1.41;;
43413;SDS011;29013;49.676;8.606;2023-09-12T21:21:48;1.66;;;1.28;;
43413;SDS011;29013;49.676;8.606;2023-09-12T21:27:26;2.06;;;1.36;;
43413;SDS011;29013;49.676;8.606;2023-09-12T21:32:52;2.18;;;1.4;;
43413;SDS011;29013;49.676;8.606;2023-09-12T21:38:17;2.51;;;1.39;;
43413;SDS011;29013;49.676;8.606;2023-09-12T21:43:41;2.94;;;1.45;;
43413;SDS011;29013;49.676;8.606;2023-09-12T21:49:07;1.41;;;1.36;;
43413;SDS011;29013;49.676;8.606;2023-09-12T21:54:33;2.23;;;1.21;;
43413;SDS011;29013;49.676;8.606;2023-09-12T21:59:59;2.74;;;1.52;;
43413;SDS011;29013;49.676;8.606;2023-09-12T22:05:26;3.37;;;1.74;;
43413;SDS011;29013;49.676;8.606;2023-09-12T22:10:50;2.2;;;1.53;;
43413;SDS011;29013;49.676;8.606;2023-09-12T22:16:09;2.37;;;1.56;;
43413;SDS011;29013;49.676;8.606;2023-09-12T22:21:36;2.68;;;1.45;;
43413;SDS011;29013;49.676;8.606;2023-09-12T22:27:02;3.9;;;1.72;;
43413;SDS011;29013;49.676;8.606;2023-09-12T22:32:28;1.58;;;1.26;;
43413;SDS011;29013;49.676;8.606;2023-09-12T22:37:54;1.92;;;1.49;;
43413;SDS011;29013;49.676;8.606;2023-09-12T22:43:20;1.56;;;1.26;;
43413;SDS011;29013;49.676;8.606;2023-09-12T22:48:46;2.14;;;1.55;;
43413;SDS011;29013;49.676;8.606;2023-09-12T22:54:38;4.98;;;1.8;;
43413;SDS011;29013;49.676;8.606;2023-09-12T23:00:06;2.37;;;1.6;;
43413;SDS011;29013;49.676;8.606;2023-09-12T23:05:26;1.97;;;1.64;;
43413;SDS011;29013;49.676;8.606;2023-09-12T23:10:52;2.55;;;1.71;;
43413;SDS011;29013;49.676;8.606;2023-09-12T23:16:18;2.28;;;1.61;;
43413;SDS011;29013;49.676;8.606;2023-09-12T23:21:43;3.34;;;1.67;;
43413;SDS011;29013;49.676;8.606;2023-09-12T23:27:27;3.05;;;1.95;;
43413;SDS011;29013;49.676;8.606;2023-09-12T23:32:53;2.48;;;1.64;;
43413;SDS011;29013;49.676;8.606;2023-09-12T23:38:18;2.84;;;1.74;;
43413;SDS011;29013;49.676;8.606;2023-09-12T23:44:00;3.0;;;1.83;;
43413;SDS011;29013;49.676;8.606;2023-09-12T23:49:25;2.64;;;1.64;;
43413;SDS011;29013;49.676;8.606;2023-09-12T23:54:45;2.7;;;1.8;;
